sensor_id;sensor_type;location;lat;lon;timestamp;pressure;altitude;pressure_sealevel;temperature;humidity
41515;BME280;27247;48.020;16.720;2024-01-27T00:03:32;100676.34;;;6.56;74.42
41515;BME280;27247;48.020;16.720;2024-01-27T00:07:42;100700.59;;;6.63;73.77
41515;BME280;27247;48.020;16.720;2024-01-27T00:11:53;100722.47;;;6.55;74.58
41515;BME280;27247;48.020;16.720;2024-01-27T00:16:03;100725.97;;;6.56;73.91
41515;BME280;27247;48.020;16.720;2024-01-27T00:20:14;100728.41;;;6.48;74.78
41515;BME280;27247;48.020;16.720;2024-01-27T00:24:24;100725.63;;;6.49;74.54
41515;BME280;27247;48.020;16.720;2024-01-27T00:28:34;100729.50;;;6.45;73.96
41515;BME280;27247;48.020;16.720;2024-01-27T00:32:45;100735.59;;;6.36;74.21
41515;BME280;27247;48.020;16.720;2024-01-27T00:36:55;100754.53;;;6.31;74.20
41515;BME280;27247;48.020;16.720;2024-01-27T00:41:06;100777.81;;;6.39;74.38
41515;BME280;27247;48.020;16.720;2024-01-27T00:45:16;100788.94;;;6.33;74.11
41515;BME280;27247;48.020;16.720;2024-01-27T00:49:26;100810.16;;;6.33;74.74
41515;BME280;27247;48.020;16.720;2024-01-27T00:53:37;100813.06;;;6.30;74.99
41515;BME280;27247;48.020;16.720;2024-01-27T00:57:47;100821.16;;;6.28;74.70
41515;BME280;27247;48.020;16.720;2024-01-27T01:01:57;100817.06;;;6.24;74.42
41515;BME280;27247;48.020;16.720;2024-01-27T01:06:07;100839.13;;;6.25;74.26
41515;BME280;27247;48.020;16.720;2024-01-27T01:10:18;100820.66;;;6.23;72.96
41515;BME280;27247;48.020;16.720;2024-01-27T01:14:28;100844.53;;;6.34;72.31
41515;BME280;27247;48.020;16.720;2024-01-27T01:18:38;100832.84;;;6.26;72.76
41515;BME280;27247;48.020;16.720;2024-01-27T01:22:49;100836.69;;;6.22;72.77
41515;BME280;27247;48.020;16.720;2024-01-27T01:26:59;100860.44;;;6.23;72.63
41515;BME280;27247;48.020;16.720;2024-01-27T01:31:09;100863.59;;;6.17;73.39
41515;BME280;27247;48.020;16.720;2024-01-27T01:35:20;100877.72;;;6.06;73.85
41515;BME280;27247;48.020;16.720;2024-01-27T01:39:30;100882.63;;;5.89;74.32
41515;BME280;27247;48.020;16.720;2024-01-27T01:43:41;100890.97;;;5.95;74.74
41515;BME280;27247;48.020;16.720;2024-01-27T01:47:51;100894.34;;;5.97;73.02
41515;BME280;27247;48.020;16.720;2024-01-27T01:52:02;100897.72;;;5.99;73.39
41515;BME280;27247;48.020;16.720;2024-01-27T01:56:15;100907.16;;;6.03;73.00
41515;BME280;27247;48.020;16.720;2024-01-27T02:00:26;100916.78;;;6.04;72.44
41515;BME280;27247;48.020;16.720;2024-01-27T02:04:42;100921.00;;;6.07;72.18
41515;BME280;27247;48.020;16.720;2024-01-27T02:08:53;100923.91;;;6.04;72.03
41515;BME280;27247;48.020;16.720;2024-01-27T02:13:04;100928.84;;;5.97;72.63
41515;BME280;27247;48.020;16.720;2024-01-27T02:17:26;100935.06;;;5.85;73.06
41515;BME280;27247;48.020;16.720;2024-01-27T02:21:36;100933.63;;;5.81;73.71
41515;BME280;27247;48.020;16.720;2024-01-27T02:25:47;100944.34;;;5.80;75.70
41515;BME280;27247;48.020;16.720;2024-01-27T02:29:57;100948.78;;;5.68;76.47
41515;BME280;27247;48.020;16.720;2024-01-27T02:34:07;100955.66;;;5.70;77.03
41515;BME280;27247;48.020;16.720;2024-01-27T02:38:18;100962.13;;;5.55;77.09
41515;BME280;27247;48.020;16.720;2024-01-27T02:42:28;100966.72;;;5.64;77.25
41515;BME280;27247;48.020;16.720;2024-01-27T02:46:39;100987.09;;;5.64;76.96
41515;BME280;27247;48.020;16.720;2024-01-27T02:50:49;100979.94;;;5.53;77.77
41515;BME280;27247;48.020;16.720;2024-01-27T02:54:59;100993.69;;;5.58;78.14
41515;BME280;27247;48.020;16.720;2024-01-27T02:59:11;101011.66;;;5.55;77.60
41515;BME280;27247;48.020;16.720;2024-01-27T03:03:22;101013.69;;;5.51;77.41
41515;BME280;27247;48.020;16.720;2024-01-27T03:07:32;101021.53;;;5.53;78.05
41515;BME280;27247;48.020;16.720;2024-01-27T03:11:42;101024.28;;;5.51;77.72
41515;BME280;27247;48.020;16.720;2024-01-27T03:15:53;101017.97;;;5.41;78.15
41515;BME280;27247;48.020;16.720;2024-01-27T03:20:03;101029.66;;;5.38;77.87
41515;BME280;27247;48.020;16.720;2024-01-27T03:24:14;101038.66;;;5.36;77.86
41515;BME280;27247;48.020;16.720;2024-01-27T03:28:24;101034.34;;;5.35;77.94
41515;BME280;27247;48.020;16.720;2024-01-27T03:32:34;101051.41;;;5.31;78.29
41515;BME280;27247;48.020;16.720;2024-01-27T03:36:48;101063.41;;;5.24;78.89
41515;BME280;27247;48.020;16.720;2024-01-27T03:40:58;101070.63;;;5.22;78.43
41515;BME280;27247;48.020;16.720;2024-01-27T03:45:09;101075.50;;;5.28;77.82
41515;BME280;27247;48.020;16.720;2024-01-27T03:49:20;101083.09;;;5.32;77.47
41515;BME280;27247;48.020;16.720;2024-01-27T03:53:30;101088.41;;;5.32;77.31
41515;BME280;27247;48.020;16.720;2024-01-27T03:57:40;101090.13;;;5.21;76.96
41515;BME280;27247;48.020;16.720;2024-01-27T04:01:50;101100.50;;;5.24;76.66
41515;BME280;27247;48.020;16.720;2024-01-27T04:06:01;101113.66;;;5.12;76.99
41515;BME280;27247;48.020;16.720;2024-01-27T04:10:12;101117.56;;;5.20;76.96
41515;BME280;27247;48.020;16.720;2024-01-27T04:14:22;101115.69;;;5.22;77.61
41515;BME280;27247;48.020;16.720;2024-01-27T04:18:33;101113.44;;;5.16;77.49
41515;BME280;27247;48.020;16.720;2024-01-27T04:22:43;101124.69;;;5.06;78.45
41515;BME280;27247;48.020;16.720;2024-01-27T04:26:53;101123.94;;;5.04;78.96
41515;BME280;27247;48.020;16.720;2024-01-27T04:31:04;101130.53;;;4.99;78.89
41515;BME280;27247;48.020;16.720;2024-01-27T04:35:14;101130.84;;;5.07;79.02
41515;BME280;27247;48.020;16.720;2024-01-27T04:39:25;101130.53;;;4.99;79.11
41515;BME280;27247;48.020;16.720;2024-01-27T04:43:35;101140.38;;;4.97;79.95
41515;BME280;27247;48.020;16.720;2024-01-27T04:47:45;101137.63;;;4.86;79.71
41515;BME280;27247;48.020;16.720;2024-01-27T04:51:55;101144.41;;;4.90;79.72
41515;BME280;27247;48.020;16.720;2024-01-27T04:56:06;101134.78;;;4.76;79.60
41515;BME280;27247;48.020;16.720;2024-01-27T05:00:18;101140.28;;;4.86;79.33
41515;BME280;27247;48.020;16.720;2024-01-27T05:04:28;101134.47;;;4.80;79.94
41515;BME280;27247;48.020;16.720;2024-01-27T05:08:39;101120.59;;;4.77;79.69
41515;BME280;27247;48.020;16.720;2024-01-27T05:12:49;101130.53;;;4.73;79.69
41515;BME280;27247;48.020;16.720;2024-01-27T05:16:59;101130.22;;;4.65;80.12
41515;BME280;27247;48.020;16.720;2024-01-27T05:21:10;101129.50;;;4.63;80.17
41515;BME280;27247;48.020;16.720;2024-01-27T05:25:20;101138.69;;;4.58;80.32
41515;BME280;27247;48.020;16.720;2024-01-27T05:29:30;101137.09;;;4.55;80.19
41515;BME280;27247;48.020;16.720;2024-01-27T05:33:42;101136.78;;;4.60;80.21
41515;BME280;27247;48.020;16.720;2024-01-27T05:37:52;101137.31;;;4.52;80.53
41515;BME280;27247;48.020;16.720;2024-01-27T05:42:04;101146.41;;;4.48;80.48
41515;BME280;27247;48.020;16.720;2024-01-27T05:46:14;101141.66;;;4.53;79.67
41515;BME280;27247;48.020;16.720;2024-01-27T05:50:25;101139.56;;;4.58;79.16
41515;BME280;27247;48.020;16.720;2024-01-27T05:54:36;101139.75;;;4.42;79.50
41515;BME280;27247;48.020;16.720;2024-01-27T05:58:47;101134.13;;;4.47;79.28
41515;BME280;27247;48.020;16.720;2024-01-27T06:02:57;101145.16;;;4.41;79.75
41515;BME280;27247;48.020;16.720;2024-01-27T06:07:08;101156.38;;;4.44;79.87
41515;BME280;27247;48.020;16.720;2024-01-27T06:11:25;101152.97;;;4.42;79.04
41515;BME280;27247;48.020;16.720;2024-01-27T06:15:35;101148.63;;;4.41;79.56
41515;BME280;27247;48.020;16.720;2024-01-27T06:19:45;101145.34;;;4.38;79.00
41515;BME280;27247;48.020;16.720;2024-01-27T06:23:56;101161.00;;;4.28;79.24
41515;BME280;27247;48.020;16.720;2024-01-27T06:28:06;101156.88;;;4.24;79.75
41515;BME280;27247;48.020;16.720;2024-01-27T06:32:16;101168.94;;;4.28;79.59
41515;BME280;27247;48.020;16.720;2024-01-27T06:36:27;101176.97;;;4.27;79.34
41515;BME280;27247;48.020;16.720;2024-01-27T06:40:37;101182.91;;;4.30;79.26
41515;BME280;27247;48.020;16.720;2024-01-27T06:44:47;101196.88;;;4.32;79.18
41515;BME280;27247;48.020;16.720;2024-01-27T06:48:58;101187.16;;;4.33;78.99
41515;BME280;27247;48.020;16.720;2024-01-27T06:53:08;101179.53;;;4.41;79.19
41515;BME280;27247;48.020;16.720;2024-01-27T06:57:21;101188.44;;;4.40;79.21
41515;BME280;27247;48.020;16.720;2024-01-27T07:01:32;101201.34;;;4.44;79.66
41515;BME280;27247;48.020;16.720;2024-01-27T07:05:42;101179.88;;;4.49;79.03
41515;BME280;27247;48.020;16.720;2024-01-27T07:09:56;101193.84;;;4.51;78.85
41515;BME280;27247;48.020;16.720;2024-01-27T07:14:06;101192.81;;;4.54;79.01
41515;BME280;27247;48.020;16.720;2024-01-27T07:18:19;101195.78;;;4.62;77.34
41515;BME280;27247;48.020;16.720;2024-01-27T07:22:30;101198.09;;;4.66;76.82
41515;BME280;27247;48.020;16.720;2024-01-27T07:26:40;101189.13;;;4.69;76.01
41515;BME280;27247;48.020;16.720;2024-01-27T07:30:52;101174.41;;;4.77;75.32
41515;BME280;27247;48.020;16.720;2024-01-27T07:35:02;101186.16;;;4.86;74.29
41515;BME280;27247;48.020;16.720;2024-01-27T07:39:13;101198.03;;;4.93;73.81
41515;BME280;27247;48.020;16.720;2024-01-27T07:43:25;101204.59;;;5.00;73.18
41515;BME280;27247;48.020;16.720;2024-01-27T07:47:35;101198.44;;;5.12;73.01
41515;BME280;27247;48.020;16.720;2024-01-27T07:51:45;101208.06;;;5.13;73.41
41515;BME280;27247;48.020;16.720;2024-01-27T07:55:56;101215.19;;;5.26;74.51
41515;BME280;27247;48.020;16.720;2024-01-27T08:00:07;101199.72;;;5.32;74.64
41515;BME280;27247;48.020;16.720;2024-01-27T08:04:17;101216.88;;;5.39;74.73
41515;BME280;27247;48.020;16.720;2024-01-27T08:08:28;101215.59;;;5.45;74.55
41515;BME280;27247;48.020;16.720;2024-01-27T08:12:38;101222.91;;;5.54;72.87
41515;BME280;27247;48.020;16.720;2024-01-27T08:16:48;101226.69;;;5.63;73.87
41515;BME280;27247;48.020;16.720;2024-01-27T08:20:59;101221.91;;;5.68;72.24
41515;BME280;27247;48.020;16.720;2024-01-27T08:25:09;101225.94;;;5.73;71.98
41515;BME280;27247;48.020;16.720;2024-01-27T08:29:19;101222.84;;;5.80;71.26
41515;BME280;27247;48.020;16.720;2024-01-27T08:33:30;101222.72;;;5.81;70.91
41515;BME280;27247;48.020;16.720;2024-01-27T08:37:40;101220.91;;;5.94;69.54
41515;BME280;27247;48.020;16.720;2024-01-27T08:41:50;101233.84;;;5.99;70.11
41515;BME280;27247;48.020;16.720;2024-01-27T08:46:01;101243.25;;;6.03;69.92
41515;BME280;27247;48.020;16.720;2024-01-27T08:50:11;101247.06;;;6.12;70.95
41515;BME280;27247;48.020;16.720;2024-01-27T08:54:22;101244.16;;;6.15;69.97
41515;BME280;27247;48.020;16.720;2024-01-27T08:58:32;101243.19;;;6.28;69.79
41515;BME280;27247;48.020;16.720;2024-01-27T09:02:43;101230.91;;;6.38;69.83
41515;BME280;27247;48.020;16.720;2024-01-27T09:06:53;101249.72;;;6.35;67.79
41515;BME280;27247;48.020;16.720;2024-01-27T09:11:04;101251.94;;;6.42;67.46
41515;BME280;27247;48.020;16.720;2024-01-27T09:15:14;101250.50;;;6.49;67.42
41515;BME280;27247;48.020;16.720;2024-01-27T09:19:24;101277.47;;;6.55;67.26
41515;BME280;27247;48.020;16.720;2024-01-27T09:23:35;101286.03;;;6.59;66.18
41515;BME280;27247;48.020;16.720;2024-01-27T09:27:45;101287.16;;;6.67;66.63
41515;BME280;27247;48.020;16.720;2024-01-27T09:31:56;101286.09;;;6.70;66.02
41515;BME280;27247;48.020;16.720;2024-01-27T09:36:06;101327.00;;;6.67;65.79
41515;BME280;27247;48.020;16.720;2024-01-27T09:40:17;101326.81;;;6.82;65.83
41515;BME280;27247;48.020;16.720;2024-01-27T09:44:28;101315.50;;;6.91;65.76
41515;BME280;27247;48.020;16.720;2024-01-27T09:48:39;101319.97;;;6.90;64.70
41515;BME280;27247;48.020;16.720;2024-01-27T09:52:49;101342.00;;;7.03;65.22
41515;BME280;27247;48.020;16.720;2024-01-27T09:56:59;101345.03;;;7.10;64.50
41515;BME280;27247;48.020;16.720;2024-01-27T10:01:11;101334.91;;;7.15;65.58
41515;BME280;27247;48.020;16.720;2024-01-27T10:05:23;101339.84;;;7.09;65.71
41515;BME280;27247;48.020;16.720;2024-01-27T10:09:33;101343.00;;;7.14;65.59
41515;BME280;27247;48.020;16.720;2024-01-27T10:13:44;101336.09;;;7.11;66.40
41515;BME280;27247;48.020;16.720;2024-01-27T10:18:04;101339.81;;;7.32;66.75
41515;BME280;27247;48.020;16.720;2024-01-27T10:22:16;101342.47;;;7.32;66.04
41515;BME280;27247;48.020;16.720;2024-01-27T10:26:30;101337.59;;;7.26;64.74
41515;BME280;27247;48.020;16.720;2024-01-27T10:30:41;101326.41;;;7.34;65.67
41515;BME280;27247;48.020;16.720;2024-01-27T10:35:05;101314.81;;;7.57;65.84
41515;BME280;27247;48.020;16.720;2024-01-27T10:39:21;101296.69;;;7.85;65.49
41515;BME280;27247;48.020;16.720;2024-01-27T10:43:32;101287.47;;;8.00;64.20
41515;BME280;27247;48.020;16.720;2024-01-27T10:47:45;101257.13;;;7.91;63.54
41515;BME280;27247;48.020;16.720;2024-01-27T10:51:59;101258.69;;;7.94;62.90
41515;BME280;27247;48.020;16.720;2024-01-27T10:56:12;101265.00;;;7.82;62.98
41515;BME280;27247;48.020;16.720;2024-01-27T11:00:23;101245.38;;;7.94;62.72
41515;BME280;27247;48.020;16.720;2024-01-27T11:04:34;101257.00;;;7.93;62.17
41515;BME280;27247;48.020;16.720;2024-01-27T11:08:46;101230.84;;;7.98;62.60
41515;BME280;27247;48.020;16.720;2024-01-27T11:12:58;101232.63;;;8.09;62.05
41515;BME280;27247;48.020;16.720;2024-01-27T11:17:08;101219.50;;;8.28;62.91
41515;BME280;27247;48.020;16.720;2024-01-27T11:21:18;101234.16;;;8.22;61.50
41515;BME280;27247;48.020;16.720;2024-01-27T11:25:29;101250.25;;;8.32;61.73
41515;BME280;27247;48.020;16.720;2024-01-27T11:29:47;101260.56;;;8.25;61.41
41515;BME280;27247;48.020;16.720;2024-01-27T11:33:58;101267.56;;;8.49;61.80
41515;BME280;27247;48.020;16.720;2024-01-27T11:38:08;101280.56;;;8.63;61.57
41515;BME280;27247;48.020;16.720;2024-01-27T11:42:19;101272.41;;;8.76;60.96
41515;BME280;27247;48.020;16.720;2024-01-27T11:46:30;101273.63;;;8.72;61.83
41515;BME280;27247;48.020;16.720;2024-01-27T11:50:40;101271.38;;;8.88;61.46
41515;BME280;27247;48.020;16.720;2024-01-27T11:54:58;101269.59;;;8.77;59.70
41515;BME280;27247;48.020;16.720;2024-01-27T11:59:10;101277.66;;;8.66;59.52
41515;BME280;27247;48.020;16.720;2024-01-27T12:03:20;101281.16;;;8.67;60.31
41515;BME280;27247;48.020;16.720;2024-01-27T12:07:31;101282.59;;;8.71;60.65
41515;BME280;27247;48.020;16.720;2024-01-27T12:11:42;101278.13;;;8.92;60.92
41515;BME280;27247;48.020;16.720;2024-01-27T12:15:52;101262.47;;;8.99;58.94
41515;BME280;27247;48.020;16.720;2024-01-27T12:20:14;101257.78;;;9.12;60.58
41515;BME280;27247;48.020;16.720;2024-01-27T12:24:26;101257.38;;;9.16;58.92
41515;BME280;27247;48.020;16.720;2024-01-27T12:28:36;101272.00;;;9.22;59.24
41515;BME280;27247;48.020;16.720;2024-01-27T12:32:47;101269.59;;;9.19;60.78
41515;BME280;27247;48.020;16.720;2024-01-27T12:36:58;101267.31;;;9.35;60.81
41515;BME280;27247;48.020;16.720;2024-01-27T12:41:08;101262.78;;;9.47;60.56
41515;BME280;27247;48.020;16.720;2024-01-27T12:45:18;101254.44;;;9.40;59.67
41515;BME280;27247;48.020;16.720;2024-01-27T12:49:29;101241.16;;;9.29;60.18
41515;BME280;27247;48.020;16.720;2024-01-27T12:53:41;101246.06;;;9.24;59.93
41515;BME280;27247;48.020;16.720;2024-01-27T12:57:53;101243.66;;;9.42;60.63
41515;BME280;27247;48.020;16.720;2024-01-27T13:02:04;101253.75;;;9.38;61.69
41515;BME280;27247;48.020;16.720;2024-01-27T13:06:14;101245.66;;;9.28;61.00
41515;BME280;27247;48.020;16.720;2024-01-27T13:10:24;101257.31;;;9.27;61.68
41515;BME280;27247;48.020;16.720;2024-01-27T13:14:35;101254.97;;;9.13;60.70
41515;BME280;27247;48.020;16.720;2024-01-27T13:18:45;101264.19;;;9.30;59.75
41515;BME280;27247;48.020;16.720;2024-01-27T13:22:56;101253.34;;;9.22;60.01
41515;BME280;27247;48.020;16.720;2024-01-27T13:27:07;101259.13;;;9.27;61.40
41515;BME280;27247;48.020;16.720;2024-01-27T13:31:18;101254.06;;;9.24;60.28
41515;BME280;27247;48.020;16.720;2024-01-27T13:35:28;101275.41;;;9.24;60.38
41515;BME280;27247;48.020;16.720;2024-01-27T13:39:38;101278.84;;;9.15;59.52
41515;BME280;27247;48.020;16.720;2024-01-27T13:43:49;101295.31;;;9.41;59.99
41515;BME280;27247;48.020;16.720;2024-01-27T13:48:00;101297.84;;;9.42;60.15
41515;BME280;27247;48.020;16.720;2024-01-27T13:52:10;101304.34;;;9.80;59.74
41515;BME280;27247;48.020;16.720;2024-01-27T13:56:21;101309.91;;;9.98;57.70
41515;BME280;27247;48.020;16.720;2024-01-27T14:00:32;101321.47;;;9.77;57.98
41515;BME280;27247;48.020;16.720;2024-01-27T14:04:44;101335.97;;;9.84;59.22
41515;BME280;27247;48.020;16.720;2024-01-27T14:08:54;101352.84;;;9.85;58.50
41515;BME280;27247;48.020;16.720;2024-01-27T14:13:05;101360.25;;;9.51;59.84
41515;BME280;27247;48.020;16.720;2024-01-27T14:17:19;101368.56;;;9.57;59.28
41515;BME280;27247;48.020;16.720;2024-01-27T14:21:32;101363.03;;;9.70;60.06
41515;BME280;27247;48.020;16.720;2024-01-27T14:25:43;101359.66;;;9.47;59.35
41515;BME280;27247;48.020;16.720;2024-01-27T14:29:56;101368.19;;;9.62;59.23
41515;BME280;27247;48.020;16.720;2024-01-27T14:34:07;101375.44;;;9.81;59.71
41515;BME280;27247;48.020;16.720;2024-01-27T14:38:17;101374.47;;;9.82;59.88
41515;BME280;27247;48.020;16.720;2024-01-27T14:42:27;101373.53;;;9.92;60.25
41515;BME280;27247;48.020;16.720;2024-01-27T14:46:38;101376.88;;;10.15;59.14
41515;BME280;27247;48.020;16.720;2024-01-27T14:50:50;101372.31;;;10.37;58.09
41515;BME280;27247;48.020;16.720;2024-01-27T14:55:07;101379.28;;;10.49;58.28
41515;BME280;27247;48.020;16.720;2024-01-27T14:59:21;101371.22;;;10.09;56.99
41515;BME280;27247;48.020;16.720;2024-01-27T15:03:31;101392.72;;;9.77;58.67
41515;BME280;27247;48.020;16.720;2024-01-27T15:07:41;101404.19;;;9.68;58.61
41515;BME280;27247;48.020;16.720;2024-01-27T15:11:52;101420.19;;;9.47;60.02
41515;BME280;27247;48.020;16.720;2024-01-27T15:16:02;101425.19;;;9.40;59.07
41515;BME280;27247;48.020;16.720;2024-01-27T15:20:13;101428.16;;;9.26;58.82
41515;BME280;27247;48.020;16.720;2024-01-27T15:24:24;101431.03;;;9.02;58.55
41515;BME280;27247;48.020;16.720;2024-01-27T15:28:34;101434.59;;;8.80;59.25
41515;BME280;27247;48.020;16.720;2024-01-27T15:32:46;101421.81;;;8.63;60.00
41515;BME280;27247;48.020;16.720;2024-01-27T15:36:57;101416.47;;;8.18;60.56
41515;BME280;27247;48.020;16.720;2024-01-27T15:41:09;101417.06;;;7.88;61.33
41515;BME280;27247;48.020;16.720;2024-01-27T15:45:20;101418.06;;;7.52;61.69
41515;BME280;27247;48.020;16.720;2024-01-27T15:49:31;101438.31;;;7.31;62.89
41515;BME280;27247;48.020;16.720;2024-01-27T15:53:42;101459.84;;;7.15;63.38
41515;BME280;27247;48.020;16.720;2024-01-27T15:57:52;101456.41;;;7.02;63.97
41515;BME280;27247;48.020;16.720;2024-01-27T16:02:03;101462.22;;;6.83;64.17
41515;BME280;27247;48.020;16.720;2024-01-27T16:06:13;101453.72;;;6.78;65.02
41515;BME280;27247;48.020;16.720;2024-01-27T16:10:23;101454.53;;;6.55;65.55
41515;BME280;27247;48.020;16.720;2024-01-27T16:14:34;101443.19;;;6.53;66.32
41515;BME280;27247;48.020;16.720;2024-01-27T16:18:44;101454.38;;;6.32;66.78
41515;BME280;27247;48.020;16.720;2024-01-27T16:22:55;101456.50;;;6.27;67.32
41515;BME280;27247;48.020;16.720;2024-01-27T16:27:05;101462.53;;;6.17;68.19
41515;BME280;27247;48.020;16.720;2024-01-27T16:31:16;101472.19;;;6.18;67.98
41515;BME280;27247;48.020;16.720;2024-01-27T16:35:26;101466.03;;;6.04;67.94
41515;BME280;27247;48.020;16.720;2024-01-27T16:39:36;101463.38;;;5.92;68.86
41515;BME280;27247;48.020;16.720;2024-01-27T16:43:47;101460.06;;;5.88;68.84
41515;BME280;27247;48.020;16.720;2024-01-27T16:47:59;101458.91;;;5.80;68.64
41515;BME280;27247;48.020;16.720;2024-01-27T16:52:10;101454.22;;;5.70;69.94
41515;BME280;27247;48.020;16.720;2024-01-27T16:56:20;101460.78;;;5.65;69.96
41515;BME280;27247;48.020;16.720;2024-01-27T17:00:32;101471.81;;;5.59;70.17
41515;BME280;27247;48.020;16.720;2024-01-27T17:04:42;101482.41;;;5.46;71.48
41515;BME280;27247;48.020;16.720;2024-01-27T17:08:53;101492.44;;;5.41;72.01
41515;BME280;27247;48.020;16.720;2024-01-27T17:13:04;101484.75;;;5.24;72.59
41515;BME280;27247;48.020;16.720;2024-01-27T17:17:15;101483.59;;;5.01;73.10
41515;BME280;27247;48.020;16.720;2024-01-27T17:21:26;101492.38;;;5.01;73.26
41515;BME280;27247;48.020;16.720;2024-01-27T17:25:37;101500.72;;;4.95;73.52
41515;BME280;27247;48.020;16.720;2024-01-27T17:29:47;101514.81;;;4.96;73.80
41515;BME280;27247;48.020;16.720;2024-01-27T17:33:57;101507.25;;;4.90;73.89
41515;BME280;27247;48.020;16.720;2024-01-27T17:38:08;101500.56;;;4.84;74.34
41515;BME280;27247;48.020;16.720;2024-01-27T17:42:18;101498.88;;;4.83;74.12
41515;BME280;27247;48.020;16.720;2024-01-27T17:46:28;101499.44;;;4.74;74.74
41515;BME280;27247;48.020;16.720;2024-01-27T17:50:40;101507.03;;;4.66;75.34
41515;BME280;27247;48.020;16.720;2024-01-27T17:54:50;101522.25;;;4.62;75.42
41515;BME280;27247;48.020;16.720;2024-01-27T17:59:01;101525.75;;;4.63;74.99
41515;BME280;27247;48.020;16.720;2024-01-27T18:03:11;101517.72;;;4.64;75.27
41515;BME280;27247;48.020;16.720;2024-01-27T18:07:21;101529.44;;;4.46;75.55
41515;BME280;27247;48.020;16.720;2024-01-27T18:11:31;101530.00;;;4.51;75.65
41515;BME280;27247;48.020;16.720;2024-01-27T18:15:42;101556.19;;;4.41;76.46
41515;BME280;27247;48.020;16.720;2024-01-27T18:19:52;101570.38;;;4.40;76.44
41515;BME280;27247;48.020;16.720;2024-01-27T18:24:03;101581.16;;;4.37;76.67
41515;BME280;27247;48.020;16.720;2024-01-27T18:28:14;101572.34;;;4.37;76.33
41515;BME280;27247;48.020;16.720;2024-01-27T18:32:24;101582.94;;;4.37;76.42
41515;BME280;27247;48.020;16.720;2024-01-27T18:36:34;101584.16;;;4.31;76.60
41515;BME280;27247;48.020;16.720;2024-01-27T18:40:45;101608.53;;;4.22;77.08
41515;BME280;27247;48.020;16.720;2024-01-27T18:44:55;101622.03;;;4.18;77.35
41515;BME280;27247;48.020;16.720;2024-01-27T18:49:05;101630.97;;;4.15;77.25
41515;BME280;27247;48.020;16.720;2024-01-27T18:53:16;101629.63;;;4.08;76.97
41515;BME280;27247;48.020;16.720;2024-01-27T18:57:27;101633.22;;;4.07;77.39
41515;BME280;27247;48.020;16.720;2024-01-27T19:01:37;101629.56;;;3.94;78.20
41515;BME280;27247;48.020;16.720;2024-01-27T19:05:47;101632.00;;;3.82;78.39
41515;BME280;27247;48.020;16.720;2024-01-27T19:09:58;101626.13;;;3.77;78.34
41515;BME280;27247;48.020;16.720;2024-01-27T19:14:08;101638.47;;;3.77;78.78
41515;BME280;27247;48.020;16.720;2024-01-27T19:18:19;101646.31;;;3.78;78.65
41515;BME280;27247;48.020;16.720;2024-01-27T19:22:30;101654.50;;;3.90;77.78
41515;BME280;27247;48.020;16.720;2024-01-27T19:26:40;101655.03;;;3.80;77.61
41515;BME280;27247;48.020;16.720;2024-01-27T19:30:51;101666.09;;;3.87;76.92
41515;BME280;27247;48.020;16.720;2024-01-27T19:35:01;101685.56;;;3.86;76.43
41515;BME280;27247;48.020;16.720;2024-01-27T19:39:12;101685.38;;;3.89;76.99
41515;BME280;27247;48.020;16.720;2024-01-27T19:43:22;101693.31;;;3.89;76.95
41515;BME280;27247;48.020;16.720;2024-01-27T19:47:32;101691.00;;;3.99;76.26
41515;BME280;27247;48.020;16.720;2024-01-27T19:51:43;101690.81;;;4.02;75.54
41515;BME280;27247;48.020;16.720;2024-01-27T19:55:53;101691.59;;;4.04;75.65
41515;BME280;27247;48.020;16.720;2024-01-27T20:00:04;101702.84;;;4.07;74.78
41515;BME280;27247;48.020;16.720;2024-01-27T20:04:15;101701.31;;;4.03;74.96
41515;BME280;27247;48.020;16.720;2024-01-27T20:08:26;101705.75;;;4.03;74.96
41515;BME280;27247;48.020;16.720;2024-01-27T20:12:37;101706.06;;;4.12;74.85
41515;BME280;27247;48.020;16.720;2024-01-27T20:16:51;101720.50;;;4.07;74.69
41515;BME280;27247;48.020;16.720;2024-01-27T20:21:02;101720.16;;;4.13;74.42
41515;BME280;27247;48.020;16.720;2024-01-27T20:25:13;101719.13;;;4.15;74.79
41515;BME280;27247;48.020;16.720;2024-01-27T20:29:23;101729.88;;;4.12;74.65
41515;BME280;27247;48.020;16.720;2024-01-27T20:33:34;101736.97;;;4.12;74.65
41515;BME280;27247;48.020;16.720;2024-01-27T20:37:44;101746.44;;;4.00;75.04
41515;BME280;27247;48.020;16.720;2024-01-27T20:41:54;101744.75;;;3.99;74.96
41515;BME280;27247;48.020;16.720;2024-01-27T20:46:05;101750.72;;;4.03;74.89
41515;BME280;27247;48.020;16.720;2024-01-27T20:50:16;101750.13;;;3.98;75.16
41515;BME280;27247;48.020;16.720;2024-01-27T20:54:27;101748.50;;;3.95;75.61
41515;BME280;27247;48.020;16.720;2024-01-27T20:58:37;101748.16;;;3.85;76.42
41515;BME280;27247;48.020;16.720;2024-01-27T21:02:49;101753.97;;;3.76;76.88
41515;BME280;27247;48.020;16.720;2024-01-27T21:06:59;101760.53;;;3.69;77.61
41515;BME280;27247;48.020;16.720;2024-01-27T21:11:10;101764.34;;;3.48;78.42
41515;BME280;27247;48.020;16.720;2024-01-27T21:15:23;101765.47;;;3.27;79.75
41515;BME280;27247;48.020;16.720;2024-01-27T21:19:33;101768.22;;;3.08;80.48
41515;BME280;27247;48.020;16.720;2024-01-27T21:23:47;101759.63;;;2.87;81.57
41515;BME280;27247;48.020;16.720;2024-01-27T21:27:57;101772.44;;;2.77;82.15
41515;BME280;27247;48.020;16.720;2024-01-27T21:32:07;101770.97;;;2.72;82.44
41515;BME280;27247;48.020;16.720;2024-01-27T21:36:18;101771.03;;;2.70;82.38
41515;BME280;27247;48.020;16.720;2024-01-27T21:40:28;101763.34;;;2.66;82.61
41515;BME280;27247;48.020;16.720;2024-01-27T21:44:38;101778.19;;;2.68;82.72
41515;BME280;27247;48.020;16.720;2024-01-27T21:48:48;101767.84;;;2.64;82.22
41515;BME280;27247;48.020;16.720;2024-01-27T21:52:59;101775.53;;;2.68;82.51